Time;durP1;ratioP1;P1;durP2;ratioP2;P2;SDS_P1;SDS_P2;PMS_P1;PMS_P2;Temp;Humidity;BMP_temperature;BMP_pressure;BME280_temperature;BME280_humidity;BME280_pressure;Samples;Min_cycle;Max_cycle;Signal;HPM_P1;HPM_P2
2022/03/03 00:01:11;;;;;;;165.48;53.90;;;;;;;;;;6227947;28;20050;-59
2022/03/03 00:04:12;;;;;;;147.60;51.70;;;;;;;;;;6233607;28;20508;-59
2022/03/03 00:07:14;;;;;;;147.30;49.42;;;;;;;;;;6233867;28;20156;-58
2022/03/03 00:10:14;;;;;;;133.18;45.90;;;;;;;;;;6224094;28;20155;-60
2022/03/03 00:13:15;;;;;;;136.48;46.60;;;;;;;;;;6231890;28;20053;-60
2022/03/03 00:16:16;;;;;;;121.82;43.55;;;;;;;;;;6226247;28;20049;-60
2022/03/03 00:19:16;;;;;;;140.80;48.15;;;;;;;;;;6229098;28;20045;-61
2022/03/03 00:22:17;;;;;;;133.88;49.30;;;;;;;;;;6227552;28;20476;-60
2022/03/03 00:25:18;;;;;;;140.93;49.95;;;;;;;;;;6231165;28;20045;-60
2022/03/03 00:28:19;;;;;;;129.88;45.13;;;;;;;;;;6230497;28;20057;-61
2022/03/03 00:31:20;;;;;;;140.88;47.28;;;;;;;;;;6225978;28;20050;-60
2022/03/03 00:34:21;;;;;;;135.63;47.60;;;;;;;;;;6233458;28;20564;-60
2022/03/03 00:37:21;;;;;;;127.13;47.03;;;;;;;;;;6228292;28;20564;-60
2022/03/03 00:40:22;;;;;;;138.63;46.50;;;;;;;;;;6226074;28;20029;-60
2022/03/03 00:43:22;;;;;;;123.72;44.08;;;;;;;;;;6236769;28;20144;-60
2022/03/03 00:46:25;;;;;;;110.53;39.03;;;;;;;;;;6229363;28;20065;-60
2022/03/03 00:49:25;;;;;;;118.18;42.50;;;;;;;;;;6230834;28;20073;-60
2022/03/03 00:52:26;;;;;;;109.18;40.50;;;;;;;;;;6231458;28;20049;-61
2022/03/03 00:55:27;;;;;;;123.97;43.75;;;;;;;;;;6234798;28;20046;-59
2022/03/03 00:58:28;;;;;;;111.10;41.22;;;;;;;;;;6232219;28;20091;-60
2022/03/03 01:01:28;;;;;;;108.00;39.67;;;;;;;;;;6229191;28;20045;-60
2022/03/03 01:04:29;;;;;;;110.95;40.75;;;;;;;;;;6228363;28;20099;-59
2022/03/03 01:07:30;;;;;;;108.68;40.33;;;;;;;;;;6231049;28;20059;-60
2022/03/03 01:10:31;;;;;;;104.43;41.25;;;;;;;;;;6224580;28;20179;-59
2022/03/03 01:13:31;;;;;;;110.72;42.45;;;;;;;;;;6228451;28;20171;-59
2022/03/03 01:16:32;;;;;;;122.57;43.00;;;;;;;;;;6231052;28;20046;-59
2022/03/03 01:19:33;;;;;;;129.82;45.67;;;;;;;;;;6228862;28;21013;-59
2022/03/03 01:22:34;;;;;;;137.68;49.15;;;;;;;;;;6230991;28;20057;-59
2022/03/03 01:25:35;;;;;;;167.90;53.55;;;;;;;;;;6225827;28;20608;-59
2022/03/03 01:28:35;;;;;;;180.88;58.72;;;;;;;;;;6229905;28;20056;-59
2022/03/03 01:31:36;;;;;;;187.35;62.67;;;;;;;;;;6231693;28;20444;-59
2022/03/03 01:34:38;;;;;;;151.45;54.97;;;;;;;;;;6226397;28;20049;-59
2022/03/03 01:37:38;;;;;;;119.63;45.85;;;;;;;;;;6227622;28;20096;-59
2022/03/03 01:40:39;;;;;;;133.15;46.22;;;;;;;;;;6224089;28;20119;-60
2022/03/03 01:43:40;;;;;;;117.03;43.03;;;;;;;;;;6238480;28;20055;-58
2022/03/03 01:46:51;;;;;;;110.97;39.03;;;;;;;;;;6241477;28;20052;-59
2022/03/03 01:49:54;;;;;;;105.15;40.55;;;;;;;;;;6221091;28;20507;-60
2022/03/03 01:52:55;;;;;;;110.15;40.65;;;;;;;;;;6227383;28;20054;-60
2022/03/03 01:55:56;;;;;;;117.63;42.40;;;;;;;;;;6229768;28;20037;-59
2022/03/03 01:58:57;;;;;;;116.95;42.60;;;;;;;;;;6227063;28;20065;-61
2022/03/03 02:01:58;;;;;;;113.93;40.65;;;;;;;;;;6224027;28;20459;-59
2022/03/03 02:04:59;;;;;;;114.67;39.83;;;;;;;;;;6224293;28;20073;-59
2022/03/03 02:07:59;;;;;;;102.57;39.95;;;;;;;;;;6227893;28;20058;-60
2022/03/03 02:11:00;;;;;;;113.97;41.35;;;;;;;;;;6225651;28;20578;-58
2022/03/03 02:14:04;;;;;;;100.97;38.80;;;;;;;;;;6226482;28;20132;-60
2022/03/03 02:17:05;;;;;;;100.93;40.38;;;;;;;;;;6222041;28;20535;-59
2022/03/03 02:20:07;;;;;;;116.28;41.40;;;;;;;;;;6227638;28;20045;-61
2022/03/03 02:23:08;;;;;;;98.57;38.15;;;;;;;;;;6227186;28;20053;-61
2022/03/03 02:26:15;;;;;;;113.40;39.10;;;;;;;;;;6231626;28;20049;-60
2022/03/03 02:29:16;;;;;;;101.72;38.65;;;;;;;;;;6229072;28;20092;-60
2022/03/03 02:32:17;;;;;;;97.82;37.90;;;;;;;;;;6229328;28;20045;-59
2022/03/03 02:35:17;;;;;;;107.20;38.60;;;;;;;;;;6231002;28;20057;-58
2022/03/03 02:38:37;;;;;;;106.38;39.78;;;;;;;;;;6227474;28;20062;-59
2022/03/03 02:41:38;;;;;;;101.35;39.58;;;;;;;;;;6226014;28;20091;-59
2022/03/03 02:44:38;;;;;;;106.05;38.17;;;;;;;;;;6228106;28;20136;-59
2022/03/03 02:47:40;;;;;;;110.20;40.13;;;;;;;;;;6225963;28;20059;-61
2022/03/03 02:50:41;;;;;;;97.38;38.92;;;;;;;;;;6227269;28;20049;-59
2022/03/03 02:53:42;;;;;;;104.50;39.00;;;;;;;;;;6235713;28;20049;-59
2022/03/03 03:00:03;;;;;;;101.30;38.55;;;;;;;;;;6231490;28;20208;-60
2022/03/03 03:03:04;;;;;;;103.67;39.70;;;;;;;;;;6232641;28;20556;-60
2022/03/03 03:06:05;;;;;;;114.15;42.03;;;;;;;;;;6231442;28;20060;-59
2022/03/03 03:09:06;;;;;;;98.32;39.58;;;;;;;;;;6231851;28;20473;-59
2022/03/03 03:12:07;;;;;;;99.93;38.72;;;;;;;;;;6232624;28;20504;-61
2022/03/03 03:15:08;;;;;;;98.57;38.08;;;;;;;;;;6235589;28;20737;-61
2022/03/03 03:18:20;;;;;;;92.10;37.75;;;;;;;;;;6235590;28;20493;-59
2022/03/03 03:21:20;;;;;;;96.57;39.20;;;;;;;;;;6234441;28;20041;-60
2022/03/03 03:24:21;;;;;;;88.95;36.30;;;;;;;;;;6230632;28;20064;-59
2022/03/03 03:27:22;;;;;;;98.78;36.70;;;;;;;;;;6233296;28;20053;-59
2022/03/03 03:30:22;;;;;;;95.65;37.95;;;;;;;;;;6235748;28;20057;-58
2022/03/03 03:33:23;;;;;;;86.85;36.47;;;;;;;;;;6229773;28;20048;-60
2022/03/03 03:36:24;;;;;;;91.05;36.92;;;;;;;;;;6232401;28;20071;-60
2022/03/03 03:39:24;;;;;;;103.88;36.47;;;;;;;;;;6231591;28;20122;-59
2022/03/03 03:42:25;;;;;;;94.25;37.05;;;;;;;;;;6228189;28;20077;-59
2022/03/03 03:45:26;;;;;;;87.00;36.65;;;;;;;;;;6229789;28;20508;-60
2022/03/03 03:48:26;;;;;;;92.22;37.53;;;;;;;;;;6229708;28;20053;-58
2022/03/03 03:51:27;;;;;;;86.07;35.80;;;;;;;;;;6231368;28;20102;-60
2022/03/03 03:54:28;;;;;;;91.80;37.17;;;;;;;;;;6232000;28;20045;-60
2022/03/03 03:57:28;;;;;;;93.47;37.63;;;;;;;;;;6229332;28;20430;-59
2022/03/03 04:00:29;;;;;;;98.03;38.55;;;;;;;;;;6224222;28;20124;-59
2022/03/03 04:03:29;;;;;;;87.10;37.67;;;;;;;;;;6227266;28;20192;-59
2022/03/03 04:06:32;;;;;;;91.90;39.00;;;;;;;;;;6229832;28;20081;-60
2022/03/03 04:09:33;;;;;;;94.57;36.42;;;;;;;;;;6232544;28;20045;-60
2022/03/03 04:12:33;;;;;;;91.60;37.15;;;;;;;;;;6230445;28;20049;-60
2022/03/03 04:15:34;;;;;;;90.65;36.05;;;;;;;;;;6230473;28;21070;-58
2022/03/03 04:18:35;;;;;;;91.25;34.35;;;;;;;;;;6226479;28;20404;-60
2022/03/03 04:21:35;;;;;;;99.22;38.08;;;;;;;;;;6232818;28;20072;-59
2022/03/03 04:24:36;;;;;;;93.53;38.13;;;;;;;;;;6224825;28;20129;-59
2022/03/03 04:27:38;;;;;;;96.65;37.17;;;;;;;;;;6230551;28;20144;-60
2022/03/03 04:30:39;;;;;;;95.55;38.55;;;;;;;;;;6227286;28;20061;-60
2022/03/03 04:33:41;;;;;;;89.10;37.15;;;;;;;;;;6231132;28;20053;-58
2022/03/03 04:36:41;;;;;;;88.00;37.17;;;;;;;;;;6227051;28;20084;-59
2022/03/03 04:39:42;;;;;;;94.55;35.92;;;;;;;;;;6229914;28;20055;-59
2022/03/03 04:42:43;;;;;;;96.00;38.33;;;;;;;;;;6226782;28;20124;-58
2022/03/03 04:45:44;;;;;;;95.85;38.03;;;;;;;;;;6234670;28;20144;-59
2022/03/03 04:48:45;;;;;;;98.65;38.25;;;;;;;;;;6231571;28;20132;-57
2022/03/03 04:51:45;;;;;;;98.93;38.28;;;;;;;;;;6235188;28;20053;-58
2022/03/03 04:54:46;;;;;;;100.32;37.17;;;;;;;;;;6231380;28;20075;-59
2022/03/03 04:57:47;;;;;;;99.00;38.55;;;;;;;;;;6229269;28;20053;-59
2022/03/03 05:00:47;;;;;;;94.55;38.40;;;;;;;;;;6226655;28;20073;-59
2022/03/03 05:03:48;;;;;;;94.68;37.40;;;;;;;;;;6229707;28;20038;-59
2022/03/03 05:06:49;;;;;;;93.30;38.70;;;;;;;;;;6231555;28;20083;-60
2022/03/03 05:09:50;;;;;;;93.57;38.40;;;;;;;;;;6230188;28;20194;-59
2022/03/03 05:12:51;;;;;;;93.28;36.92;;;;;;;;;;6227373;28;20177;-59
2022/03/03 05:15:51;;;;;;;95.20;38.92;;;;;;;;;;6232273;28;20132;-59
2022/03/03 05:18:52;;;;;;;100.57;38.53;;;;;;;;;;6234383;28;20059;-60
2022/03/03 05:21:53;;;;;;;98.18;37.88;;;;;;;;;;6222785;28;20044;-59
2022/03/03 05:24:54;;;;;;;101.03;38.72;;;;;;;;;;6231863;28;20060;-60
2022/03/03 05:27:54;;;;;;;95.07;38.15;;;;;;;;;;6232967;28;20140;-59
2022/03/03 05:30:55;;;;;;;96.35;38.63;;;;;;;;;;6226877;28;20433;-59
2022/03/03 05:33:55;;;;;;;91.32;37.40;;;;;;;;;;6225094;28;20051;-58
2022/03/03 05:36:57;;;;;;;92.43;36.13;;;;;;;;;;6231042;28;20814;-59
2022/03/03 05:39:58;;;;;;;95.57;37.97;;;;;;;;;;6225009;28;20184;-59
2022/03/03 05:42:59;;;;;;;90.80;37.15;;;;;;;;;;6237436;28;20386;-59
2022/03/03 05:45:59;;;;;;;95.32;38.92;;;;;;;;;;6230179;28;20072;-58
2022/03/03 05:49:02;;;;;;;92.68;38.35;;;;;;;;;;6238340;28;20049;-59
2022/03/03 05:52:03;;;;;;;94.95;39.65;;;;;;;;;;6232154;28;20049;-58
2022/03/03 05:55:05;;;;;;;94.40;37.53;;;;;;;;;;6223788;28;20096;-58
2022/03/03 05:58:10;;;;;;;89.55;39.60;;;;;;;;;;6229552;28;20084;-59
2022/03/03 06:01:12;;;;;;;100.78;42.15;;;;;;;;;;6231255;28;20077;-58
2022/03/03 06:04:15;;;;;;;98.70;39.97;;;;;;;;;;6221540;28;20056;-59
2022/03/03 06:07:27;;;;;;;112.93;43.92;;;;;;;;;;6240704;28;20135;-59
2022/03/03 06:10:32;;;;;;;118.40;45.20;;;;;;;;;;6238976;28;20084;-58
2022/03/03 06:13:36;;;;;;;116.18;44.22;;;;;;;;;;6236040;28;20719;-58
2022/03/03 06:16:39;;;;;;;120.63;46.75;;;;;;;;;;6233185;28;20061;-57
2022/03/03 06:19:41;;;;;;;124.97;47.63;;;;;;;;;;6237393;28;20076;-57
2022/03/03 06:22:42;;;;;;;154.55;54.20;;;;;;;;;;6215792;28;20045;-60
2022/03/03 06:25:43;;;;;;;152.50;53.75;;;;;;;;;;6244879;28;20049;-58
2022/03/03 06:28:45;;;;;;;158.35;58.47;;;;;;;;;;6247272;28;20135;-58
2022/03/03 06:31:46;;;;;;;160.35;60.25;;;;;;;;;;6245682;28;20045;-56
2022/03/03 06:34:47;;;;;;;161.32;59.08;;;;;;;;;;6236564;28;20398;-58
2022/03/03 06:37:47;;;;;;;167.40;62.47;;;;;;;;;;6239927;28;20062;-57
2022/03/03 06:40:49;;;;;;;166.82;61.22;;;;;;;;;;6237272;28;20050;-59
2022/03/03 06:43:50;;;;;;;165.25;62.65;;;;;;;;;;6232832;28;20077;-58
2022/03/03 06:46:51;;;;;;;154.80;61.13;;;;;;;;;;6239369;28;20079;-58
2022/03/03 06:49:52;;;;;;;159.70;61.17;;;;;;;;;;6245534;28;20575;-56
2022/03/03 06:52:53;;;;;;;139.07;56.10;;;;;;;;;;6245463;28;20165;-60
2022/03/03 06:56:06;;;;;;;141.32;55.25;;;;;;;;;;6245272;28;20504;-59
2022/03/03 06:59:07;;;;;;;138.63;54.35;;;;;;;;;;6244874;28;20136;-59
2022/03/03 07:02:08;;;;;;;132.60;50.95;;;;;;;;;;6243210;28;20045;-58
2022/03/03 07:05:11;;;;;;;122.07;47.77;;;;;;;;;;6252122;28;20052;-61
2022/03/03 07:08:13;;;;;;;124.63;48.13;;;;;;;;;;6229047;28;20053;-60
2022/03/03 07:11:14;;;;;;;122.32;48.17;;;;;;;;;;6231639;28;20503;-57
2022/03/03 07:14:16;;;;;;;119.43;48.08;;;;;;;;;;6233274;28;20451;-60
2022/03/03 07:17:29;;;;;;;112.20;44.40;;;;;;;;;;6232263;28;20050;-59
2022/03/03 07:21:05;;;;;;;117.60;45.35;;;;;;;;;;6232865;28;20054;-60
2022/03/03 07:24:34;;;;;;;111.22;43.38;;;;;;;;;;6231649;28;20064;-61
2022/03/03 07:27:40;;;;;;;115.30;44.85;;;;;;;;;;6226546;28;20052;-58
2022/03/03 07:30:43;;;;;;;114.05;43.58;;;;;;;;;;6240488;28;20121;-60
2022/03/03 07:33:55;;;;;;;114.57;45.05;;;;;;;;;;6232008;28;20073;-57
2022/03/03 07:36:59;;;;;;;130.73;54.22;;;;;;;;;;6231060;28;20700;-60
2022/03/03 07:40:05;;;;;;;138.73;55.10;;;;;;;;;;6232167;28;20049;-61
2022/03/03 07:43:06;;;;;;;140.80;57.80;;;;;;;;;;6227016;28;20046;-60
2022/03/03 07:46:07;;;;;;;136.73;53.83;;;;;;;;;;6232914;28;20078;-60
2022/03/03 07:49:10;;;;;;;121.63;49.53;;;;;;;;;;6233376;28;20053;-60
2022/03/03 07:52:10;;;;;;;117.55;46.78;;;;;;;;;;6233390;28;20049;-59
2022/03/03 07:55:11;;;;;;;111.32;45.13;;;;;;;;;;6232283;28;20677;-60
2022/03/03 07:58:21;;;;;;;117.95;46.03;;;;;;;;;;6233497;28;20132;-60
2022/03/03 08:01:22;;;;;;;94.55;39.30;;;;;;;;;;6233234;28;20041;-60
2022/03/03 08:04:29;;;;;;;109.50;45.03;;;;;;;;;;6232645;28;20501;-59
2022/03/03 08:07:43;;;;;;;100.68;41.20;;;;;;;;;;6229814;28;20485;-59
2022/03/03 08:10:45;;;;;;;134.25;50.85;;;;;;;;;;6232221;28;20102;-58
2022/03/03 08:13:46;;;;;;;114.07;48.00;;;;;;;;;;6233038;28;20042;-58
2022/03/03 08:16:47;;;;;;;130.50;49.25;;;;;;;;;;6248439;28;20397;-57
2022/03/03 08:19:48;;;;;;;122.70;46.40;;;;;;;;;;6258475;28;20071;-58
2022/03/03 08:22:49;;;;;;;114.75;44.75;;;;;;;;;;6260631;28;21251;-57
2022/03/03 08:25:51;;;;;;;128.25;51.78;;;;;;;;;;6262025;28;20041;-57
2022/03/03 08:28:52;;;;;;;120.30;50.15;;;;;;;;;;6259105;28;20076;-58
2022/03/03 08:31:56;;;;;;;99.07;40.22;;;;;;;;;;6260512;28;20516;-57
2022/03/03 08:35:10;;;;;;;114.90;45.95;;;;;;;;;;6248318;28;20451;-59
2022/03/03 08:38:21;;;;;;;114.68;43.35;;;;;;;;;;6250860;28;20100;-60
2022/03/03 08:41:22;;;;;;;104.35;41.88;;;;;;;;;;6229495;28;20088;-58
2022/03/03 08:44:30;;;;;;;110.93;44.97;;;;;;;;;;6230378;28;20454;-58
2022/03/03 08:47:32;;;;;;;113.50;43.00;;;;;;;;;;6230756;28;20311;-60
2022/03/03 08:50:36;;;;;;;102.70;44.40;;;;;;;;;;6232030;28;20038;-60
2022/03/03 08:53:36;;;;;;;99.47;39.92;;;;;;;;;;6226089;28;20513;-61
2022/03/03 08:56:39;;;;;;;79.38;32.58;;;;;;;;;;6237155;28;20041;-60
2022/03/03 08:59:40;;;;;;;72.88;30.88;;;;;;;;;;6225253;28;20054;-60
2022/03/03 09:02:46;;;;;;;74.53;30.38;;;;;;;;;;6229368;28;20057;-61
2022/03/03 09:05:54;;;;;;;42.92;19.58;;;;;;;;;;6229613;28;20469;-59
2022/03/03 09:08:55;;;;;;;70.65;29.38;;;;;;;;;;6229981;28;20605;-58
2022/03/03 09:11:55;;;;;;;66.88;27.63;;;;;;;;;;6230645;28;20109;-61
2022/03/03 09:14:56;;;;;;;63.33;25.58;;;;;;;;;;6230515;28;20041;-61
2022/03/03 09:17:57;;;;;;;56.45;25.65;;;;;;;;;;6239651;28;20059;-60
2022/03/03 09:20:57;;;;;;;59.70;25.25;;;;;;;;;;6230051;28;20220;-60
2022/03/03 09:23:58;;;;;;;65.75;27.05;;;;;;;;;;6228108;28;20618;-58
2022/03/03 09:26:59;;;;;;;56.58;26.17;;;;;;;;;;6230679;28;20049;-59
2022/03/03 09:30:00;;;;;;;67.53;28.17;;;;;;;;;;6228727;28;20069;-57
2022/03/03 09:33:01;;;;;;;68.07;28.45;;;;;;;;;;6231045;28;20142;-61
2022/03/03 09:36:01;;;;;;;66.40;28.85;;;;;;;;;;6231983;28;20046;-61
2022/03/03 09:39:03;;;;;;;73.55;29.33;;;;;;;;;;6225339;28;20081;-61
2022/03/03 09:42:04;;;;;;;67.55;28.85;;;;;;;;;;6227137;28;20045;-61
2022/03/03 09:45:07;;;;;;;73.15;30.02;;;;;;;;;;6231193;28;20220;-60
2022/03/03 09:48:09;;;;;;;78.57;29.73;;;;;;;;;;6231238;28;20052;-60
2022/03/03 09:51:09;;;;;;;70.60;28.57;;;;;;;;;;6227598;28;20452;-59
2022/03/03 09:54:11;;;;;;;81.57;32.92;;;;;;;;;;6231164;28;20060;-60
2022/03/03 09:57:12;;;;;;;76.63;33.10;;;;;;;;;;6231310;28;20057;-61
2022/03/03 10:00:13;;;;;;;86.80;35.33;;;;;;;;;;6227351;28;20123;-59
2022/03/03 10:03:15;;;;;;;88.32;34.58;;;;;;;;;;6226138;28;20507;-60
2022/03/03 10:06:21;;;;;;;80.40;33.30;;;;;;;;;;6228464;28;20456;-59
2022/03/03 10:09:21;;;;;;;79.53;32.92;;;;;;;;;;6231341;28;20068;-59
2022/03/03 10:12:23;;;;;;;89.43;37.40;;;;;;;;;;6228064;28;20045;-60
2022/03/03 10:15:26;;;;;;;77.75;35.63;;;;;;;;;;6227554;28;20054;-60
2022/03/03 10:18:27;;;;;;;75.05;33.30;;;;;;;;;;6230251;28;20049;-59
2022/03/03 10:21:28;;;;;;;84.43;36.65;;;;;;;;;;6231594;28;20185;-59
2022/03/03 10:24:30;;;;;;;85.37;35.73;;;;;;;;;;6226299;28;20136;-60
2022/03/03 10:27:33;;;;;;;84.65;34.30;;;;;;;;;;6230189;28;20261;-59
2022/03/03 10:31:00;;;;;;;77.72;32.35;;;;;;;;;;6231180;28;20054;-60
2022/03/03 10:34:00;;;;;;;73.78;32.33;;;;;;;;;;6227581;28;20057;-59
2022/03/03 10:37:07;;;;;;;78.93;30.35;;;;;;;;;;6243468;28;20741;-60
2022/03/03 10:40:13;;;;;;;71.03;28.45;;;;;;;;;;6257105;28;20123;-60
2022/03/03 10:43:14;;;;;;;70.15;29.10;;;;;;;;;;6260620;28;20063;-60
2022/03/03 10:46:14;;;;;;;81.22;32.88;;;;;;;;;;6248065;28;20145;-61
2022/03/03 10:49:18;;;;;;;86.35;35.00;;;;;;;;;;6261068;28;20099;-61
2022/03/03 10:52:21;;;;;;;92.10;37.13;;;;;;;;;;6255071;28;20476;-60
2022/03/03 10:55:22;;;;;;;94.38;37.60;;;;;;;;;;6243639;28;20053;-60
2022/03/03 10:58:42;;;;;;;90.97;36.22;;;;;;;;;;6229247;28;20056;-62
2022/03/03 11:01:44;;;;;;;89.82;36.28;;;;;;;;;;6226482;28;20041;-59
2022/03/03 11:04:45;;;;;;;91.60;36.22;;;;;;;;;;6230957;28;20061;-60
2022/03/03 11:07:47;;;;;;;85.05;35.22;;;;;;;;;;6224913;28;20054;-60
2022/03/03 11:10:49;;;;;;;75.55;33.70;;;;;;;;;;6232418;28;20534;-61
2022/03/03 11:13:51;;;;;;;;;;;;;;;;;;6235953;28;20068;-61
2022/03/03 11:16:52;;;;;;;63.08;27.27;;;;;;;;;;6231914;28;20384;-61
2022/03/03 11:19:58;;;;;;;66.00;27.88;;;;;;;;;;6229415;28;20072;-60
2022/03/03 11:22:58;;;;;;;56.45;25.60;;;;;;;;;;6233488;28;20136;-60
2022/03/03 11:25:59;;;;;;;73.85;26.55;;;;;;;;;;6241115;28;20084;-61
2022/03/03 11:29:02;;;;;;;63.15;27.25;;;;;;;;;;6236069;28;20397;-60
2022/03/03 11:32:05;;;;;;;66.75;26.10;;;;;;;;;;6235282;28;20135;-60
2022/03/03 11:35:06;;;;;;;;;;;;;;;;;;6233695;28;20423;-60
2022/03/03 11:38:07;;;;;;;62.15;25.10;;;;;;;;;;6234310;28;19929;-60
2022/03/03 11:41:08;;;;;;;51.95;22.88;;;;;;;;;;6235763;28;20077;-60
2022/03/03 11:44:14;;;;;;;57.67;23.73;;;;;;;;;;6234630;28;20068;-60
2022/03/03 11:47:30;;;;;;;65.72;26.73;;;;;;;;;;6228205;28;20050;-60
2022/03/03 11:50:31;;;;;;;63.22;25.02;;;;;;;;;;6229723;28;20045;-60
2022/03/03 11:53:46;;;;;;;70.78;27.90;;;;;;;;;;6230659;28;20107;-60
2022/03/03 11:57:13;;;;;;;68.90;28.17;;;;;;;;;;6232492;28;20065;-60
2022/03/03 12:00:18;;;;;;;68.00;27.65;;;;;;;;;;6231328;28;20099;-60
2022/03/03 12:03:22;;;;;;;71.78;29.73;;;;;;;;;;6231521;28;20096;-60
2022/03/03 12:06:36;;;;;;;73.15;29.25;;;;;;;;;;6240815;28;20064;-61
2022/03/03 12:09:41;;;;;;;71.30;28.02;;;;;;;;;;6231803;28;20091;-59
2022/03/03 12:12:42;;;;;;;67.90;28.90;;;;;;;;;;6241350;28;21115;-59
2022/03/03 12:16:11;;;;;;;69.00;28.52;;;;;;;;;;6247579;28;20124;-59
2022/03/03 12:19:13;;;;;;;58.88;24.40;;;;;;;;;;6231500;28;20064;-60
2022/03/03 12:22:24;;;;;;;61.53;26.95;;;;;;;;;;6233330;28;20080;-59
2022/03/03 12:25:58;;;;;;;63.72;27.65;;;;;;;;;;6229926;28;20088;-59
2022/03/03 12:29:01;;;;;;;56.15;25.17;;;;;;;;;;6229764;28;20144;-59
2022/03/03 12:32:40;;;;;;;69.68;27.27;;;;;;;;;;6230453;28;20042;-61
2022/03/03 12:35:42;;;;;;;61.85;26.60;;;;;;;;;;6243372;28;20049;-61
2022/03/03 12:38:43;;;;;;;64.57;28.33;;;;;;;;;;6261353;28;20045;-61
2022/03/03 12:41:43;;;;;;;70.28;29.60;;;;;;;;;;6261928;28;20420;-59
2022/03/03 12:44:53;;;;;;;63.90;28.77;;;;;;;;;;6258486;28;20084;-59
2022/03/03 12:47:54;;;;;;;71.85;29.75;;;;;;;;;;6261408;28;20500;-60
2022/03/03 12:51:08;;;;;;;73.05;29.67;;;;;;;;;;6262711;28;20053;-60
2022/03/03 12:54:09;;;;;;;69.95;27.67;;;;;;;;;;6261056;28;20389;-61
2022/03/03 12:57:10;;;;;;;71.95;27.88;;;;;;;;;;6255089;28;20137;-60
2022/03/03 13:00:12;;;;;;;68.25;29.55;;;;;;;;;;6229695;28;20084;-59
2022/03/03 13:03:15;;;;;;;68.07;29.83;;;;;;;;;;6233068;28;20118;-60
2022/03/03 13:06:23;;;;;;;67.60;28.27;;;;;;;;;;6231035;28;20425;-60
2022/03/03 13:09:23;;;;;;;67.80;28.17;;;;;;;;;;6230969;28;20495;-58
2022/03/03 13:12:24;;;;;;;66.95;28.40;;;;;;;;;;6255201;28;20049;-59
2022/03/03 13:15:36;;;;;;;72.40;27.70;;;;;;;;;;6247527;28;20471;-59
2022/03/03 13:18:37;;;;;;;66.95;28.48;;;;;;;;;;6229677;28;20045;-61
2022/03/03 13:21:42;;;;;;;63.35;26.70;;;;;;;;;;6231323;28;20053;-61
2022/03/03 13:24:44;;;;;;;65.78;27.58;;;;;;;;;;6240500;28;20044;-59
2022/03/03 13:27:46;;;;;;;67.30;28.05;;;;;;;;;;6257570;28;20055;-60
2022/03/03 13:30:50;;;;;;;72.30;29.88;;;;;;;;;;6254262;28;20468;-60
2022/03/03 13:33:54;;;;;;;63.53;27.70;;;;;;;;;;6254351;28;20048;-59
2022/03/03 13:36:57;;;;;;;57.10;24.48;;;;;;;;;;6262334;28;20075;-58
2022/03/03 13:40:10;;;;;;;66.55;26.92;;;;;;;;;;6246334;28;20061;-59
2022/03/03 13:43:11;;;;;;;66.80;28.92;;;;;;;;;;6228040;28;20045;-60
2022/03/03 13:46:26;;;;;;;72.20;28.35;;;;;;;;;;6232301;28;20413;-58
2022/03/03 13:49:36;;;;;;;69.65;29.38;;;;;;;;;;6223661;28;20176;-59
2022/03/03 13:52:37;;;;;;;67.15;27.33;;;;;;;;;;6252039;28;20052;-59
2022/03/03 13:55:38;;;;;;;68.63;27.95;;;;;;;;;;6261530;28;20044;-58
2022/03/03 13:58:38;;;;;;;68.13;28.38;;;;;;;;;;6243017;28;20050;-60
2022/03/03 14:01:39;;;;;;;68.00;28.45;;;;;;;;;;6230057;28;20877;-59
2022/03/03 14:04:40;;;;;;;58.45;26.67;;;;;;;;;;6227673;28;20046;-58
2022/03/03 14:07:49;;;;;;;63.55;27.83;;;;;;;;;;6235027;28;20507;-59
2022/03/03 14:11:04;;;;;;;63.55;27.15;;;;;;;;;;6226865;28;20409;-59
2022/03/03 14:14:05;;;;;;;60.40;26.17;;;;;;;;;;6227960;28;20512;-60
2022/03/03 14:17:05;;;;;;;62.47;25.27;;;;;;;;;;6224026;28;20140;-59
2022/03/03 14:20:07;;;;;;;59.97;25.60;;;;;;;;;;6229493;28;20054;-59
2022/03/03 14:23:07;;;;;;;68.28;27.67;;;;;;;;;;6229682;28;20049;-60
2022/03/03 14:26:11;;;;;;;62.80;25.58;;;;;;;;;;6223894;28;20037;-60
2022/03/03 14:29:11;;;;;;;56.88;24.20;;;;;;;;;;6232713;28;20041;-60
2022/03/03 14:32:12;;;;;;;61.35;24.55;;;;;;;;;;6228321;28;20042;-60
2022/03/03 14:35:13;;;;;;;59.22;24.10;;;;;;;;;;6231775;28;20831;-59
2022/03/03 14:38:15;;;;;;;53.05;24.55;;;;;;;;;;6259851;28;20061;-60
2022/03/03 14:41:15;;;;;;;56.65;24.27;;;;;;;;;;6249369;28;20057;-61
2022/03/03 14:44:16;;;;;;;65.55;25.60;;;;;;;;;;6232518;28;20053;-60
2022/03/03 14:47:17;;;;;;;61.20;24.85;;;;;;;;;;6236057;28;20076;-61
2022/03/03 14:50:18;;;;;;;60.25;24.98;;;;;;;;;;6236726;28;20477;-60
2022/03/03 14:53:18;;;;;;;56.85;23.75;;;;;;;;;;6237131;28;20392;-61
2022/03/03 14:56:19;;;;;;;58.95;24.58;;;;;;;;;;6232044;28;20137;-61
2022/03/03 14:59:20;;;;;;;60.90;23.63;;;;;;;;;;6234406;28;20061;-60
2022/03/03 15:02:21;;;;;;;59.75;22.55;;;;;;;;;;6234956;28;20076;-61
2022/03/03 15:05:23;;;;;;;42.53;16.27;;;;;;;;;;6229711;28;20061;-59
2022/03/03 15:08:24;;;;;;;48.15;18.48;;;;;;;;;;6234753;28;20088;-60
2022/03/03 15:11:25;;;;;;;52.70;21.45;;;;;;;;;;6233630;28;20132;-60
2022/03/03 15:14:26;;;;;;;54.47;23.23;;;;;;;;;;6231615;28;20052;-61
2022/03/03 15:17:27;;;;;;;52.30;22.20;;;;;;;;;;6228848;28;20140;-59
2022/03/03 15:20:27;;;;;;;56.78;21.90;;;;;;;;;;6228508;28;20103;-61
2022/03/03 15:23:28;;;;;;;52.70;23.13;;;;;;;;;;6226089;28;20068;-61
2022/03/03 15:26:29;;;;;;;68.43;26.00;;;;;;;;;;6226161;28;20067;-58
2022/03/03 15:29:30;;;;;;;55.15;23.45;;;;;;;;;;6226458;28;20129;-60
2022/03/03 15:32:31;;;;;;;68.57;25.63;;;;;;;;;;6226197;28;20251;-60
2022/03/03 15:38:51;;;;;;;63.10;26.60;;;;;;;;;;6222661;28;20536;-56
2022/03/03 15:41:57;;;;;;;66.75;26.75;;;;;;;;;;6225225;28;20088;-58
2022/03/03 15:44:59;;;;;;;63.75;25.17;;;;;;;;;;6226391;28;20059;-59
2022/03/03 15:48:00;;;;;;;42.00;17.20;;;;;;;;;;6224058;28;20148;-59
2022/03/03 15:51:02;;;;;;;36.72;15.43;;;;;;;;;;6226290;28;20053;-57
2022/03/03 15:54:03;;;;;;;36.67;15.77;;;;;;;;;;6224896;28;20061;-58
2022/03/03 15:57:05;;;;;;;42.00;17.45;;;;;;;;;;6221798;28;20050;-58
2022/03/03 16:00:06;;;;;;;42.72;17.67;;;;;;;;;;6226988;28;20053;-57
2022/03/03 16:03:07;;;;;;;38.03;16.43;;;;;;;;;;6225978;28;20095;-58
2022/03/03 16:06:08;;;;;;;40.83;17.27;;;;;;;;;;6224684;28;20065;-60
2022/03/03 16:09:13;;;;;;;39.40;16.40;;;;;;;;;;6225754;28;20058;-57
2022/03/03 16:12:14;;;;;;;43.72;17.10;;;;;;;;;;6224573;28;20056;-58
2022/03/03 16:15:15;;;;;;;38.97;17.13;;;;;;;;;;6224098;28;20053;-58
2022/03/03 16:18:24;;;;;;;45.60;18.48;;;;;;;;;;6224363;28;20057;-58
2022/03/03 16:21:26;;;;;;;57.70;21.95;;;;;;;;;;6223652;28;20136;-58
2022/03/03 16:24:34;;;;;;;49.40;21.23;;;;;;;;;;6226085;28;20053;-56
2022/03/03 16:27:35;;;;;;;44.03;17.40;;;;;;;;;;6221285;28;20050;-57
2022/03/03 16:30:36;;;;;;;45.38;18.08;;;;;;;;;;6226812;28;20045;-59
2022/03/03 16:33:38;;;;;;;47.67;19.60;;;;;;;;;;6223642;28;20084;-57
2022/03/03 16:36:40;;;;;;;79.78;26.73;;;;;;;;;;6224413;28;20054;-55
2022/03/03 16:39:42;;;;;;;61.95;23.27;;;;;;;;;;6230075;28;20057;-60
2022/03/03 16:42:42;;;;;;;65.85;23.30;;;;;;;;;;6231100;28;20571;-60
2022/03/03 16:45:43;;;;;;;66.55;23.10;;;;;;;;;;6232469;28;20608;-60
2022/03/03 16:48:44;;;;;;;58.63;21.67;;;;;;;;;;6231060;28;20057;-59
2022/03/03 16:51:46;;;;;;;60.90;23.48;;;;;;;;;;6233875;28;20500;-59
2022/03/03 16:54:48;;;;;;;58.33;21.45;;;;;;;;;;6233856;28;20049;-60
2022/03/03 16:57:50;;;;;;;55.00;21.35;;;;;;;;;;6230033;28;20499;-61
2022/03/03 17:00:50;;;;;;;54.05;22.42;;;;;;;;;;6235733;28;20041;-59
2022/03/03 17:03:52;;;;;;;63.10;24.08;;;;;;;;;;6234639;28;20068;-60
2022/03/03 17:06:53;;;;;;;55.88;22.73;;;;;;;;;;6231496;28;20496;-60
2022/03/03 17:09:54;;;;;;;60.95;25.00;;;;;;;;;;6231626;28;20478;-58
2022/03/03 17:12:55;;;;;;;65.50;24.65;;;;;;;;;;6233486;28;20042;-59
2022/03/03 17:15:57;;;;;;;63.30;24.67;;;;;;;;;;6230658;28;20408;-61
2022/03/03 17:18:58;;;;;;;70.37;25.97;;;;;;;;;;6230489;28;20638;-61
2022/03/03 17:22:01;;;;;;;62.25;25.10;;;;;;;;;;6237421;28;20051;-58
2022/03/03 17:25:02;;;;;;;75.63;28.10;;;;;;;;;;6236791;28;20145;-58
2022/03/03 17:28:04;;;;;;;128.60;42.92;;;;;;;;;;6231584;28;20069;-59
2022/03/03 17:31:05;;;;;;;172.43;52.05;;;;;;;;;;6234632;28;20111;-61
2022/03/03 17:34:09;;;;;;;114.05;36.22;;;;;;;;;;6232266;28;20480;-61
2022/03/03 17:37:10;;;;;;;80.63;30.30;;;;;;;;;;6228141;28;20583;-58
2022/03/03 17:40:15;;;;;;;84.13;30.45;;;;;;;;;;6233057;28;20080;-57
2022/03/03 17:43:15;;;;;;;83.75;31.77;;;;;;;;;;6231842;28;20057;-58
2022/03/03 17:46:17;;;;;;;94.68;37.08;;;;;;;;;;6230962;28;20057;-57